createdAt,value
2023-09-17T00:01:41.133Z,21.03
2023-09-17T00:04:11.499Z,20.97
2023-09-17T00:06:42.548Z,20.98
2023-09-17T00:09:10.116Z,21.11
2023-09-17T00:11:39.876Z,21.11
2023-09-17T00:14:16.103Z,21.07
2023-09-17T00:16:42.972Z,21.16
2023-09-17T00:19:16.521Z,21.06
2023-09-17T00:21:43.500Z,21.23
2023-09-17T00:24:13.688Z,21.38
2023-09-17T00:26:43.801Z,21.38
2023-09-17T00:29:10.792Z,21.56
2023-09-17T00:31:39.278Z,21.52
2023-09-17T00:34:06.158Z,21.62
2023-09-17T00:36:33.099Z,21.61
2023-09-17T00:38:59.986Z,21.66
2023-09-17T00:41:27.636Z,21.64
2023-09-17T00:43:58.179Z,21.61
2023-09-17T00:46:25.660Z,21.71
2023-09-17T00:48:52.977Z,21.75
2023-09-17T00:51:23.754Z,21.61
2023-09-17T00:53:51.527Z,21.64
2023-09-17T00:56:18.890Z,21.56
2023-09-17T00:58:46.362Z,21.38
2023-09-17T01:01:14.217Z,21.17
2023-09-17T01:03:46.045Z,21.24
2023-09-17T01:06:14.252Z,21.14
2023-09-17T01:08:46.928Z,21.18
2023-09-17T01:11:14.641Z,21.11
2023-09-17T01:13:42.796Z,21.07
2023-09-17T01:16:11.270Z,21.24
2023-09-17T01:18:38.709Z,21.23
2023-09-17T01:21:18.325Z,21.01
2023-09-17T01:23:55.159Z,20.90
2023-09-17T01:26:31.661Z,20.97
2023-09-17T01:29:00.780Z,20.94
2023-09-17T01:31:28.895Z,21.01
2023-09-17T01:33:59.482Z,20.83
2023-09-17T01:36:35.067Z,20.75
2023-09-17T01:39:09.573Z,20.69
2023-09-17T01:41:40.849Z,20.60
2023-09-17T01:44:09.560Z,20.55
2023-09-17T01:46:42.592Z,20.57
2023-09-17T01:49:14.070Z,20.53
2023-09-17T01:51:41.823Z,20.53
2023-09-17T01:54:12.809Z,20.52
2023-09-17T01:56:45.744Z,20.39
2023-09-17T01:59:13.975Z,20.50
2023-09-17T02:01:41.023Z,20.57
2023-09-17T02:04:08.388Z,20.50
2023-09-17T02:06:38.161Z,20.60
2023-09-17T02:09:06.805Z,20.69
2023-09-17T02:11:34.406Z,20.65
2023-09-17T02:14:01.513Z,20.67
2023-09-17T02:16:28.562Z,20.77
2023-09-17T02:18:55.988Z,20.56
2023-09-17T02:21:24.351Z,20.57
2023-09-17T02:23:51.491Z,20.52
2023-09-17T02:26:50.184Z,20.21
2023-09-17T02:29:23.260Z,20.11
2023-09-17T02:31:50.100Z,20.07
2023-09-17T02:34:16.957Z,20.15
2023-09-17T02:36:44.152Z,20.35
2023-09-17T02:39:11.143Z,20.19
2023-09-17T02:41:41.492Z,20.11
2023-09-17T02:44:09.026Z,20.19
2023-09-17T02:46:45.189Z,20.17
2023-09-17T02:49:12.845Z,20.25
2023-09-17T02:51:40.223Z,20.26
2023-09-17T02:54:06.944Z,20.18
2023-09-17T02:56:35.130Z,20.17
2023-09-17T02:59:02.495Z,20.17
2023-09-17T03:01:29.420Z,20.14
2023-09-17T03:03:56.885Z,20.30
2023-09-17T03:06:24.041Z,20.22
2023-09-17T03:08:51.273Z,20.11
2023-09-17T03:11:26.051Z,20.18
2023-09-17T03:13:53.647Z,20.11
2023-09-17T03:16:21.487Z,20.19
2023-09-17T03:18:48.468Z,20.21
2023-09-17T03:21:16.177Z,20.04
2023-09-17T03:23:42.982Z,20.12
2023-09-17T03:26:11.407Z,20.04
2023-09-17T03:28:38.641Z,20.02
2023-09-17T03:31:08.637Z,20.02
2023-09-17T03:33:40.697Z,20.05
2023-09-17T03:36:07.990Z,19.97
2023-09-17T03:38:38.077Z,19.92
2023-09-17T03:41:05.776Z,19.88
2023-09-17T03:43:33.197Z,19.85
2023-09-17T03:46:00.242Z,19.87
2023-09-17T03:48:29.927Z,19.85
2023-09-17T03:50:57.046Z,19.75
2023-09-17T03:53:27.280Z,19.82
2023-09-17T03:55:57.521Z,19.78
2023-09-17T03:58:26.677Z,19.84
2023-09-17T04:00:57.177Z,19.81
2023-09-17T04:03:32.352Z,19.75
2023-09-17T04:05:59.855Z,19.77
2023-09-17T04:08:33.782Z,19.90
2023-09-17T04:11:04.024Z,19.78
2023-09-17T04:13:37.103Z,19.90
2023-09-17T04:16:15.749Z,19.81
2023-09-17T04:18:46.586Z,19.78
2023-09-17T04:21:13.439Z,19.71
2023-09-17T04:23:41.171Z,19.70
2023-09-17T04:26:07.984Z,19.64
2023-09-17T04:28:34.769Z,19.80
2023-09-17T04:31:12.758Z,19.77
2023-09-17T04:33:42.761Z,19.60
2023-09-17T04:36:10.533Z,19.54
2023-09-17T04:38:40.441Z,19.70
2023-09-17T04:41:10.036Z,19.70
2023-09-17T04:43:36.811Z,19.66
2023-09-17T04:46:03.628Z,19.71
2023-09-17T04:48:40.607Z,19.80
2023-09-17T04:51:07.783Z,19.66
2023-09-17T04:53:34.780Z,19.59
2023-09-17T04:56:11.341Z,19.49
2023-09-17T04:58:49.429Z,19.49
2023-09-17T05:01:23.227Z,19.46
2023-09-17T05:07:44.149Z,19.33
2023-09-17T05:10:14.654Z,19.35
2023-09-17T05:12:42.507Z,19.33
2023-09-17T05:15:09.688Z,19.28
2023-09-17T05:17:42.890Z,19.28
2023-09-17T05:20:27.728Z,19.30
2023-09-17T05:23:04.113Z,19.24
2023-09-17T05:25:31.038Z,19.24
2023-09-17T05:27:57.823Z,19.23
2023-09-17T05:30:27.853Z,19.20
2023-09-17T05:32:55.222Z,19.23
2023-09-17T05:35:27.785Z,19.20
2023-09-17T05:37:57.612Z,19.16
2023-09-17T05:40:24.766Z,19.15
2023-09-17T05:42:52.878Z,19.19
2023-09-17T05:45:36.460Z,19.13
2023-09-17T05:48:06.955Z,19.15
2023-09-17T05:50:34.090Z,19.15
2023-09-17T05:53:08.444Z,19.16
2023-09-17T05:55:35.686Z,19.15
2023-09-17T05:58:02.591Z,19.13
2023-09-17T06:00:30.634Z,19.13
2023-09-17T06:03:00.742Z,19.12
2023-09-17T06:05:27.837Z,19.12
2023-09-17T06:07:56.243Z,19.10
2023-09-17T06:10:24.285Z,19.19
2023-09-17T06:12:55.538Z,19.19
2023-09-17T06:15:22.614Z,19.26
2023-09-17T06:17:49.839Z,19.26
2023-09-17T06:20:19.469Z,19.29
2023-09-17T06:22:48.791Z,19.38
2023-09-17T06:25:19.701Z,19.40
2023-09-17T06:27:50.209Z,19.47
2023-09-17T06:33:38.514Z,19.68
2023-09-17T06:36:05.767Z,19.70
2023-09-17T06:38:33.021Z,19.78
2023-09-17T06:41:01.091Z,19.82
2023-09-17T06:43:28.140Z,19.87
2023-09-17T06:45:58.412Z,19.97
2023-09-17T06:48:27.120Z,20.08
2023-09-17T06:50:57.620Z,20.22
2023-09-17T06:53:25.725Z,20.28
2023-09-17T06:55:52.506Z,20.35
2023-09-17T06:58:19.609Z,20.35
2023-09-17T07:00:48.700Z,20.48
2023-09-17T07:03:18.477Z,20.59
2023-09-17T07:05:45.476Z,21.01
2023-09-17T07:08:12.446Z,21.65
2023-09-17T07:10:39.654Z,21.92
2023-09-17T07:13:06.519Z,22.74
2023-09-17T07:15:33.670Z,22.67
2023-09-17T07:18:00.984Z,23.12
2023-09-17T07:20:28.347Z,23.29
2023-09-17T07:22:55.604Z,23.30
2023-09-17T07:25:35.970Z,23.03
2023-09-17T07:28:09.000Z,22.92
2023-09-17T07:30:36.482Z,23.01
2023-09-17T07:33:05.428Z,23.35
2023-09-17T07:35:48.543Z,23.36
2023-09-17T07:38:15.608Z,23.28
2023-09-17T07:40:49.634Z,23.50
2023-09-17T07:46:44.963Z,23.77
2023-09-17T07:49:14.965Z,23.89
2023-09-17T07:51:41.667Z,24.11
2023-09-17T07:54:08.494Z,24.37
2023-09-17T07:56:35.317Z,24.45
2023-09-17T07:59:02.188Z,24.10
2023-09-17T08:01:29.534Z,24.17
2023-09-17T08:03:57.001Z,24.24
2023-09-17T08:06:26.867Z,24.05
2023-09-17T08:08:53.657Z,24.37
2023-09-17T08:11:20.988Z,24.45
2023-09-17T08:13:49.379Z,24.83
2023-09-17T08:16:16.381Z,25.20
2023-09-17T08:18:43.525Z,25.12
2023-09-17T08:21:10.538Z,24.76
2023-09-17T08:23:37.495Z,25.20
2023-09-17T08:26:06.081Z,25.15
2023-09-17T08:28:32.994Z,25.48
2023-09-17T08:30:59.884Z,25.23
2023-09-17T08:33:26.688Z,25.31
2023-09-17T08:35:53.527Z,25.40
2023-09-17T08:38:20.575Z,25.60
2023-09-17T08:40:48.052Z,25.68
2023-09-17T08:43:15.906Z,26.08
2023-09-17T08:45:43.591Z,26.23
2023-09-17T08:48:10.482Z,26.01
2023-09-17T08:50:38.610Z,25.89
2023-09-17T08:53:10.714Z,26.02
2023-09-17T08:55:37.840Z,26.33
2023-09-17T08:58:17.190Z,25.89
2023-09-17T09:00:50.088Z,25.98
2023-09-17T09:03:21.419Z,26.36
2023-09-17T09:05:49.114Z,25.91
2023-09-17T09:08:24.054Z,26.08
2023-09-17T09:10:52.226Z,26.18
2023-09-17T09:13:20.290Z,26.28
2023-09-17T09:15:47.440Z,26.11
2023-09-17T09:18:14.502Z,26.49
2023-09-17T09:20:42.182Z,26.84
2023-09-17T09:23:08.966Z,27.04
2023-09-17T09:25:36.179Z,27.04
2023-09-17T09:28:04.151Z,27.05
2023-09-17T09:30:31.151Z,27.00
2023-09-17T09:32:58.465Z,27.37
2023-09-17T09:35:25.132Z,27.31
2023-09-17T09:37:52.756Z,27.62
2023-09-17T09:40:20.013Z,27.32
2023-09-17T09:42:48.328Z,27.01
2023-09-17T09:45:16.960Z,26.95
2023-09-17T09:47:51.126Z,28.01
2023-09-17T09:50:28.725Z,27.21
2023-09-17T09:52:56.431Z,28.31
2023-09-17T09:55:25.403Z,28.30
2023-09-17T09:57:55.135Z,28.65
2023-09-17T10:00:28.128Z,28.75
2023-09-17T10:02:55.398Z,28.56
2023-09-17T10:05:44.290Z,28.26
2023-09-17T10:08:12.758Z,28.30
2023-09-17T10:10:40.595Z,28.71
2023-09-17T10:13:08.325Z,28.27
2023-09-17T10:15:40.099Z,28.28
2023-09-17T10:18:12.010Z,28.98
2023-09-17T10:20:40.119Z,28.88
2023-09-17T10:23:08.119Z,28.78
2023-09-17T10:25:35.290Z,27.78
2023-09-17T10:28:03.743Z,27.24
2023-09-17T10:30:32.281Z,28.21
2023-09-17T10:33:01.542Z,28.82
2023-09-17T10:35:30.458Z,29.26
2023-09-17T10:37:59.693Z,29.76
2023-09-17T10:40:29.177Z,29.20
2023-09-17T10:42:58.717Z,29.64
2023-09-17T10:45:28.423Z,29.94
2023-09-17T10:47:58.546Z,29.76
2023-09-17T10:50:29.066Z,29.18
2023-09-17T10:52:55.933Z,28.77
2023-09-17T10:55:24.090Z,29.95
2023-09-17T10:58:02.367Z,29.62
2023-09-17T11:00:35.778Z,28.68
2023-09-17T11:03:05.583Z,29.08
2023-09-17T11:05:33.921Z,29.03
2023-09-17T11:08:05.127Z,28.33
2023-09-17T11:10:33.149Z,29.43
2023-09-17T11:13:00.556Z,29.93
2023-09-17T11:15:27.530Z,29.80
2023-09-17T11:18:01.143Z,29.45
2023-09-17T11:20:28.429Z,29.40
2023-09-17T11:22:55.144Z,30.42
2023-09-17T11:25:36.101Z,30.84
2023-09-17T11:28:13.622Z,30.39
2023-09-17T11:30:57.311Z,30.31
2023-09-17T11:33:25.282Z,31.79
2023-09-17T11:35:53.285Z,30.39
2023-09-17T11:38:24.875Z,29.94
2023-09-17T11:41:08.470Z,31.37
2023-09-17T11:43:40.813Z,31.03
2023-09-17T11:46:09.748Z,30.96
2023-09-17T11:48:37.927Z,31.77
2023-09-17T11:51:24.151Z,31.40
2023-09-17T11:54:04.603Z,31.95
2023-09-17T11:56:33.603Z,31.67
2023-09-17T11:59:09.844Z,31.07
2023-09-17T12:01:41.419Z,30.99
2023-09-17T12:04:10.422Z,30.22
2023-09-17T12:06:48.997Z,29.84
2023-09-17T12:09:17.427Z,30.73
2023-09-17T12:11:47.382Z,31.10
2023-09-17T12:14:15.225Z,31.24
2023-09-17T12:16:42.439Z,30.53
2023-09-17T12:19:17.594Z,30.73
2023-09-17T12:21:53.088Z,31.17
2023-09-17T12:24:47.525Z,31.00
2023-09-17T12:27:26.558Z,30.12
2023-09-17T12:29:54.977Z,29.95
2023-09-17T12:32:26.117Z,29.06
2023-09-17T12:34:54.871Z,29.06
2023-09-17T12:37:26.785Z,29.29
2023-09-17T12:39:57.928Z,29.70
2023-09-17T12:42:24.784Z,29.00
2023-09-17T12:44:52.238Z,28.95
2023-09-17T12:47:20.722Z,28.92
2023-09-17T12:49:51.364Z,29.62
2023-09-17T12:52:19.548Z,29.97
2023-09-17T12:54:46.691Z,29.47
2023-09-17T12:57:14.192Z,29.00
2023-09-17T12:59:41.101Z,29.05
2023-09-17T13:02:09.121Z,29.59
2023-09-17T13:04:40.341Z,30.22
2023-09-17T13:07:17.570Z,30.04
2023-09-17T13:09:45.511Z,29.87
2023-09-17T13:12:16.357Z,30.45
2023-09-17T13:14:43.131Z,31.03
2023-09-17T13:17:10.798Z,30.56
2023-09-17T13:19:38.860Z,29.64
2023-09-17T13:22:05.739Z,29.40
2023-09-17T13:24:34.403Z,29.27
2023-09-17T13:27:04.704Z,29.66
2023-09-17T13:29:43.428Z,29.76
2023-09-17T13:32:13.163Z,30.11
2023-09-17T13:34:44.373Z,30.10
2023-09-17T13:37:12.042Z,29.94
2023-09-17T13:39:43.781Z,29.53
2023-09-17T13:42:11.073Z,29.09
2023-09-17T13:44:38.130Z,28.98
2023-09-17T13:47:07.360Z,29.14
2023-09-17T13:49:34.353Z,29.67
2023-09-17T13:52:01.105Z,29.63
2023-09-17T13:54:27.958Z,29.29
2023-09-17T13:56:54.682Z,29.19
2023-09-17T13:59:21.498Z,29.20
2023-09-17T14:01:48.508Z,29.63
2023-09-17T14:04:15.501Z,29.19
2023-09-17T14:06:42.759Z,29.32
2023-09-17T14:09:09.465Z,29.05
2023-09-17T14:11:37.304Z,29.08
2023-09-17T14:14:04.628Z,28.91
2023-09-17T14:16:31.491Z,29.06
2023-09-17T14:18:58.602Z,29.18
2023-09-17T14:21:25.369Z,29.45
2023-09-17T14:23:52.134Z,29.40
2023-09-17T14:26:18.983Z,29.29
2023-09-17T14:28:45.932Z,29.19
2023-09-17T14:31:12.712Z,29.25
2023-09-17T14:33:39.676Z,29.29
2023-09-17T14:36:06.410Z,29.98
2023-09-17T14:38:33.182Z,30.08
2023-09-17T14:40:59.943Z,30.01
2023-09-17T14:43:26.702Z,29.91
2023-09-17T14:45:53.465Z,29.85
2023-09-17T14:48:20.249Z,29.54
2023-09-17T14:50:47.148Z,29.42
2023-09-17T14:53:13.932Z,29.56
2023-09-17T14:55:40.977Z,29.32
2023-09-17T14:58:07.648Z,29.19
2023-09-17T15:00:35.082Z,29.12
2023-09-17T15:03:02.194Z,29.15
2023-09-17T15:05:29.251Z,28.69
2023-09-17T15:07:56.358Z,28.43
2023-09-17T15:10:23.011Z,28.78
2023-09-17T15:12:49.769Z,28.68
2023-09-17T15:15:16.622Z,28.82
2023-09-17T15:17:43.382Z,28.64
2023-09-17T15:20:10.676Z,28.49
2023-09-17T15:22:38.772Z,28.51
2023-09-17T15:25:05.906Z,28.54
2023-09-17T15:27:33.987Z,28.65
2023-09-17T15:30:00.908Z,28.67
2023-09-17T15:32:27.873Z,28.57
2023-09-17T15:34:55.199Z,28.75
2023-09-17T15:37:22.031Z,28.74
2023-09-17T15:39:49.173Z,28.67
2023-09-17T15:42:15.782Z,28.68
2023-09-17T15:44:42.549Z,28.65
2023-09-17T15:47:09.323Z,28.96
2023-09-17T15:49:36.156Z,29.16
2023-09-17T15:52:05.509Z,28.75
2023-09-17T15:54:32.710Z,28.64
2023-09-17T15:56:59.391Z,28.41
2023-09-17T15:59:26.350Z,28.34
2023-09-17T16:01:53.182Z,28.37
2023-09-17T16:04:20.304Z,28.56
2023-09-17T16:06:47.377Z,28.49
2023-09-17T16:09:14.165Z,28.52
2023-09-17T16:11:41.069Z,28.57
2023-09-17T16:14:08.092Z,28.57
2023-09-17T16:16:34.982Z,28.38
2023-09-17T16:19:01.861Z,28.34
2023-09-17T16:21:28.694Z,28.43
2023-09-17T16:23:55.370Z,28.26
2023-09-17T16:26:22.157Z,28.19
2023-09-17T16:28:49.082Z,28.56
2023-09-17T16:31:15.809Z,28.58
2023-09-17T16:33:42.699Z,28.43
2023-09-17T16:36:09.741Z,28.19
2023-09-17T16:38:36.522Z,28.26
2023-09-17T16:41:03.499Z,28.14
2023-09-17T16:43:30.816Z,28.00
2023-09-17T16:45:57.717Z,27.97
2023-09-17T16:48:25.981Z,27.70
2023-09-17T16:50:53.090Z,27.52
2023-09-17T16:53:19.911Z,27.34
2023-09-17T16:55:46.758Z,27.20
2023-09-17T16:58:19.356Z,27.31
2023-09-17T17:00:51.095Z,27.14
2023-09-17T17:03:18.121Z,27.18
2023-09-17T17:05:45.760Z,27.18
2023-09-17T17:08:13.595Z,27.00
2023-09-17T17:10:42.135Z,26.94
2023-09-17T17:13:09.497Z,27.02
2023-09-17T17:15:36.900Z,26.88
2023-09-17T17:18:03.964Z,26.79
2023-09-17T17:20:30.803Z,26.71
2023-09-17T17:22:57.622Z,26.79
2023-09-17T17:25:24.407Z,26.63
2023-09-17T17:27:52.440Z,26.63
2023-09-17T17:30:19.263Z,26.53
2023-09-17T17:32:46.589Z,26.11
2023-09-17T17:35:15.356Z,25.91
2023-09-17T17:37:42.310Z,25.89
2023-09-17T17:40:09.617Z,25.71
2023-09-17T17:42:36.423Z,25.48
2023-09-17T17:45:04.051Z,25.37
2023-09-17T17:47:34.131Z,25.23
2023-09-17T17:50:01.474Z,25.06
2023-09-17T17:52:28.398Z,24.85
2023-09-17T17:58:40.538Z,24.42
2023-09-17T18:01:07.531Z,24.38
2023-09-17T18:03:34.336Z,24.35
2023-09-17T18:06:01.197Z,24.38
2023-09-17T18:08:28.090Z,24.31
2023-09-17T18:10:55.228Z,24.28
2023-09-17T18:13:22.317Z,24.11
2023-09-17T18:15:49.161Z,23.97
2023-09-17T18:18:16.990Z,23.81
2023-09-17T18:20:44.662Z,23.83
2023-09-17T18:23:11.604Z,23.83
2023-09-17T18:25:40.154Z,24.01
2023-09-17T18:28:10.097Z,24.07
2023-09-17T18:30:37.649Z,24.04
2023-09-17T18:33:05.280Z,23.86
2023-09-17T18:35:32.013Z,23.76
2023-09-17T18:37:58.899Z,23.70
2023-09-17T18:40:25.630Z,23.73
2023-09-17T18:42:52.719Z,23.74
2023-09-17T18:45:19.840Z,23.73
2023-09-17T18:47:46.796Z,23.89
2023-09-17T18:50:14.516Z,23.67
2023-09-17T18:52:41.760Z,23.66
2023-09-17T18:55:08.897Z,23.63
2023-09-17T18:57:35.701Z,23.59
2023-09-17T19:00:05.976Z,23.49
2023-09-17T19:02:32.967Z,23.49
2023-09-17T19:04:59.857Z,23.36
2023-09-17T19:07:26.702Z,23.39
2023-09-17T19:09:53.448Z,23.42
2023-09-17T19:12:23.881Z,23.43
2023-09-17T19:14:50.902Z,23.53
2023-09-17T19:17:17.757Z,23.43
2023-09-17T19:19:44.829Z,23.49
2023-09-17T19:22:11.681Z,23.33
2023-09-17T19:24:38.544Z,23.16
2023-09-17T19:27:05.689Z,23.01
2023-09-17T19:29:32.708Z,23.14
2023-09-17T19:31:59.784Z,23.12
2023-09-17T19:34:26.614Z,23.03
2023-09-17T19:36:53.329Z,23.14
2023-09-17T19:39:20.708Z,23.18
2023-09-17T19:41:47.409Z,23.11
2023-09-17T19:44:14.320Z,22.88
2023-09-17T19:46:41.430Z,22.95
2023-09-17T19:49:08.278Z,22.85
2023-09-17T19:51:37.100Z,22.85
2023-09-17T19:54:05.379Z,22.78
2023-09-17T19:56:32.345Z,22.78
2023-09-17T19:59:00.206Z,22.82
2023-09-17T20:01:27.572Z,22.72
2023-09-17T20:03:54.783Z,22.80
2023-09-17T20:06:21.608Z,22.90
2023-09-17T20:08:48.343Z,23.01
2023-09-17T20:11:15.116Z,22.96
2023-09-17T20:13:42.477Z,22.92
2023-09-17T20:16:09.347Z,22.95
2023-09-17T20:18:38.181Z,22.92
2023-09-17T20:21:07.208Z,22.96
2023-09-17T20:23:37.622Z,22.99
2023-09-17T20:26:09.408Z,23.03
2023-09-17T20:28:37.121Z,23.02
2023-09-17T20:31:04.443Z,23.01
2023-09-17T20:33:31.350Z,22.98
2023-09-17T20:35:58.382Z,22.95
2023-09-17T20:38:25.285Z,23.01
2023-09-17T20:40:52.249Z,22.95
2023-09-17T20:43:19.236Z,22.95
2023-09-17T20:45:45.998Z,22.99
2023-09-17T20:48:12.994Z,22.96
2023-09-17T20:50:39.692Z,22.99
2023-09-17T20:53:06.589Z,22.96
2023-09-17T20:55:33.304Z,22.91
2023-09-17T20:58:00.136Z,22.91
2023-09-17T21:00:27.092Z,22.90
2023-09-17T21:02:55.731Z,22.95
2023-09-17T21:05:24.840Z,22.95
2023-09-17T21:07:51.721Z,22.95
2023-09-17T21:10:18.640Z,22.85
2023-09-17T21:12:45.401Z,22.94
2023-09-17T21:15:12.186Z,22.91
2023-09-17T21:17:39.814Z,22.85
2023-09-17T21:20:07.530Z,22.80
2023-09-17T21:22:35.868Z,22.80
2023-09-17T21:25:02.684Z,22.77
2023-09-17T21:27:29.610Z,22.70
2023-09-17T21:29:56.436Z,22.70
2023-09-17T21:32:23.367Z,22.63
2023-09-17T21:34:50.235Z,22.61
2023-09-17T21:37:17.142Z,22.51
2023-09-17T21:39:43.883Z,22.45
2023-09-17T21:42:10.578Z,22.44
2023-09-17T21:44:37.533Z,22.44
2023-09-17T21:47:04.507Z,22.39
2023-09-17T21:49:31.487Z,22.24
2023-09-17T21:51:58.193Z,22.20
2023-09-17T21:54:24.907Z,22.19
2023-09-17T21:56:51.750Z,22.02
2023-09-17T21:59:18.752Z,22.03
2023-09-17T22:01:48.495Z,21.90
2023-09-17T22:04:15.306Z,21.72
2023-09-17T22:06:42.032Z,21.74
2023-09-17T22:09:09.270Z,21.72
2023-09-17T22:11:36.192Z,21.69
2023-09-17T22:14:03.335Z,21.62
2023-09-17T22:16:30.620Z,21.58
2023-09-17T22:18:57.400Z,21.46
2023-09-17T22:21:24.196Z,21.49
2023-09-17T22:23:50.939Z,21.48
2023-09-17T22:26:17.886Z,21.44
2023-09-17T22:28:44.667Z,21.54
2023-09-17T22:31:15.955Z,21.58
2023-09-17T22:33:46.802Z,21.58
2023-09-17T22:36:14.191Z,21.64
2023-09-17T22:38:43.841Z,21.46
2023-09-17T22:41:21.284Z,21.44
2023-09-17T22:43:49.164Z,21.48
2023-09-17T22:46:17.368Z,21.59
2023-09-17T22:48:48.275Z,21.51
2023-09-17T22:51:15.079Z,21.58
2023-09-17T22:53:41.797Z,21.61
2023-09-17T22:56:08.656Z,21.56
2023-09-17T22:58:35.486Z,21.51
2023-09-17T23:01:03.501Z,21.55
2023-09-17T23:03:30.438Z,21.55
2023-09-17T23:05:57.250Z,21.51
2023-09-17T23:08:24.082Z,21.41
2023-09-17T23:10:58.808Z,21.32
2023-09-17T23:13:25.790Z,21.32
2023-09-17T23:15:57.130Z,21.31
2023-09-17T23:18:24.463Z,21.21
2023-09-17T23:20:52.073Z,21.18
2023-09-17T23:23:18.963Z,21.08
2023-09-17T23:25:45.876Z,21.10
2023-09-17T23:28:13.162Z,20.98
2023-09-17T23:30:42.055Z,21.11
2023-09-17T23:33:09.277Z,21.06
2023-09-17T23:35:36.923Z,21.04
2023-09-17T23:38:04.734Z,21.01
2023-09-17T23:40:31.599Z,21.01
2023-09-17T23:42:58.322Z,21.11
2023-09-17T23:45:25.051Z,21.03
2023-09-17T23:47:52.097Z,21.04
2023-09-17T23:50:19.236Z,20.86
2023-09-17T23:52:45.994Z,20.80
2023-09-17T23:55:12.700Z,20.96
